Latest Weather Observations for Weipa

IDQ60801

Issued at 1:32 pm EST Sunday 25 September 2016 (issued every 30 minutes, with the page automatically refreshed every 10 minutes)

About weather observations | Map of weather stations | Latest weather observations for QLD | Other Formats
Station Details ID: 027045 Name: WEIPA AERO Lat: -12.68 Lon: 141.92 Height: 17.96 m
Data from the previous 72 hours. | See also: Recent months at Weipa
Date/Time
EST
Temp
°C
App
Temp
°C
Dew
Point
°C
Rel
Hum
%
Delta-T
°C
Wind Press
QNH
hPa
Press
MSL
hPa
Rain since
9am
mm
Dir  Spd
km/h
Gust
km/h
Spd
kts
Gust
kts
25/01:30pm 34.2 34.5 17.0 36 11.0 ENE 11 24 6 13 1007.4 - 0.0
25/01:00pm 34.2 34.7 18.3 39 10.4 ENE 13 22 7 12 1008.1 - 0.0
25/12:30pm 33.0 34.5 18.8 43 9.3 SE 9 20 5 11 1008.8 - 0.0
25/12:00pm 32.3 33.4 18.9 45 8.8 SSE 11 22 6 12 1009.6 1009.5 0.0
25/11:30am 31.1 31.7 18.5 47 8.1 E 13 20 7 11 1010.2 - 0.0
25/11:00am 31.0 31.9 18.3 46 8.2 E 11 24 6 13 1010.6 - 0.0
25/10:30am 30.1 30.6 18.4 49 7.5 E 13 24 7 13 1011.0 - 0.0
25/10:00am 29.3 29.8 19.3 55 6.5 E 15 24 8 13 1011.3 - 0.0
25/09:30am 28.5 29.3 19.9 59 5.6 ENE 15 20 8 11 1011.5 - 0.0
25/09:00am 27.7 28.9 20.6 65 4.7 ENE 15 20 8 11 1011.7 1011.6 0.0
25/08:30am 26.5 28.5 20.8 71 3.8 E 11 19 6 10 1011.4 - 0.0
25/08:00am 25.1 27.4 20.7 76 2.9 E 9 15 5 8 1011.1 - 0.0
25/07:30am 23.9 26.2 20.7 82 2.1 E 9 13 5 7 1010.7 - 0.0
25/07:00am 23.0 25.7 20.6 86 1.6 E 7 11 4 6 1010.3 - 0.0
25/06:30am 22.1 24.7 20.1 88 1.3 ESE 6 7 3 4 1009.8 - 0.0
25/06:00am 22.2 24.8 20.0 87 1.4 ESE 6 7 3 4 1009.6 1009.5 0.0
25/05:30am 22.4 24.8 20.1 87 1.5 E 7 9 4 5 1009.2 - 0.0
25/05:00am 22.4 25.0 20.0 86 1.5 SE 6 7 3 4 1009.0 - 0.0
25/04:30am 22.7 25.7 20.1 85 1.7 ESE 4 6 2 3 1008.9 - 0.0
25/04:00am 23.1 25.7 20.0 83 2.0 ESE 6 7 3 4 1008.6 - 0.0
25/03:30am 23.5 26.1 20.0 81 2.3 E 6 7 3 4 1008.6 - 0.0
25/03:00am 23.7 26.1 19.7 78 2.6 E 6 7 3 4 1008.8 1008.7 0.0
25/02:30am 24.2 26.6 19.6 75 3.0 E 6 7 3 4 1008.9 - 0.0
25/02:00am 24.6 27.0 19.7 74 3.2 E 6 11 3 6 1009.1 - 0.0
25/01:30am 24.5 27.4 20.7 79 2.5 ENE 6 6 3 3 1009.2 - 0.0
25/01:00am 25.0 28.1 21.0 78 2.6 ENE 6 6 3 3 1009.5 - 0.0
25/12:30am 25.5 28.6 21.4 78 2.7 NE 7 9 4 5 1009.8 - 0.0
25/12:00am 25.8 30.3 23.0 84 1.9 NE 4 7 2 4 1010.1 1010.0 0.0
 
Date/Time
EST
Temp
°C
App
Temp
°C
Dew
Point
°C
Rel
Hum
%
Delta-T
°C
Wind Press
QNH
hPa
Press
MSL
hPa
Rain since
9am
mm
Dir  Spd
km/h
Gust
km/h
Spd
kts
Gust
kts
24/11:30pm 25.7 30.0 23.3 86 1.6 ENE 6 7 3 4 1010.2 - 0.0
24/11:00pm 25.8 30.0 23.4 86 1.6 NE 7 9 4 5 1010.1 - 0.0
24/10:30pm 25.8 30.7 23.1 85 1.8 ENE 2 4 1 2 1010.3 - 0.0
24/10:00pm 26.1 31.5 23.2 84 2.0 CALM 0 0 0 0 1010.1 - 0.0
24/09:30pm 26.3 31.6 23.1 82 2.2 CALM 0 0 0 0 1009.9 - 0.0
24/09:00pm 26.7 32.1 23.2 81 2.4 CALM 0 0 0 0 1009.8 1009.7 0.0
24/08:30pm 26.8 31.0 23.2 80 2.5 WNW 6 7 3 4 1009.4 - 0.0
24/08:00pm 26.9 31.1 23.2 80 2.5 WNW 6 6 3 3 1008.9 - 0.0
24/07:30pm 27.1 31.0 23.0 78 2.8 W 7 11 4 6 1008.3 - 0.0
24/07:00pm 27.3 30.4 22.9 77 3.0 W 11 19 6 10 1007.7 - 0.0
24/06:30pm 27.7 30.6 22.5 73 3.5 W 11 19 6 10 1007.2 - 0.0
24/06:00pm 28.5 30.4 22.1 68 4.3 W 15 22 8 12 1006.8 1006.7 0.0
24/05:30pm 29.6 32.0 22.2 64 5.0 W 13 22 7 12 1006.4 - 0.0
24/05:00pm 30.0 31.3 21.7 61 5.6 W 17 30 9 16 1006.2 - 0.0
24/04:30pm 30.4 31.4 21.0 57 6.3 W 17 30 9 16 1006.1 - 0.0
24/04:00pm 31.2 31.7 21.2 55 6.7 W 20 30 11 16 1006.1 - 0.0
24/03:30pm 31.4 32.4 21.0 54 7.0 W 17 26 9 14 1006.2 - 0.0
24/03:00pm 34.5 36.7 19.5 41 9.9 E 7 17 4 9 1006.3 1006.2 0.0
24/02:30pm 34.3 35.6 19.4 41 9.8 ENE 11 22 6 12 1006.7 - 0.0
24/02:00pm 34.2 35.9 19.4 41 9.8 ESE 9 24 5 13 1007.3 - 0.0
24/01:30pm 33.7 34.2 19.3 42 9.5 ESE 15 22 8 12 1007.9 - 0.0
24/01:00pm 33.7 36.2 21.1 47 8.5 SE 9 19 5 10 1008.3 - 0.0
24/12:30pm 32.8 34.7 19.8 46 8.6 ESE 9 19 5 10 1009.1 - 0.0
24/12:00pm 31.8 33.2 19.5 48 8.1 E 11 20 6 11 1009.7 1009.6 0.0
24/11:30am 30.8 32.1 19.3 50 7.5 ENE 11 20 6 11 1010.2 - 0.0
24/11:00am 30.7 32.7 20.7 55 6.7 E 11 19 6 10 1010.7 - 0.0
24/10:30am 30.0 31.3 20.9 58 6.1 E 15 24 8 13 1011.1 - 0.0
24/10:00am 29.3 30.6 20.8 60 5.6 E 15 19 8 10 1011.5 - 0.0
24/09:30am 29.1 30.8 20.9 61 5.4 E 13 22 7 12 1011.5 - 0.0
24/09:00am 28.1 29.4 20.9 65 4.8 E 15 24 8 13 1011.6 1011.5 0.2
24/08:30am 27.3 29.6 21.3 69 4.0 E 11 19 6 10 1011.4 - 0.2
24/08:00am 26.2 30.0 22.7 81 2.4 ESE 7 9 4 5 1011.1 - 0.2
24/07:30am 24.8 28.5 22.5 87 1.5 ESE 7 9 4 5 1010.8 - 0.2
24/07:00am 23.9 27.6 22.3 91 1.1 E 6 7 3 4 1010.5 - 0.2
24/06:30am 23.3 27.6 21.9 92 0.9 NE 2 4 1 2 1010.3 - 0.2
24/06:00am 23.5 27.1 22.0 91 1.0 E 6 7 3 4 1009.8 1009.7 0.2
24/05:57am 23.6 27.2 22.1 91 1.0 E 6 7 3 4 1009.7 - 0.2
24/05:30am 23.7 28.3 22.4 92 0.9 ESE 2 6 1 3 1009.5 - 0.2
24/05:00am 23.9 28.8 22.4 91 1.0 CALM 0 0 0 0 1009.4 - 0.2
24/04:30am 24.0 29.0 22.5 91 1.0 CALM 0 2 0 1 1009.3 - 0.2
24/04:01am 24.2 28.9 22.6 91 1.1 E 2 4 1 2 1009.2 - 0.2
24/04:00am 24.2 28.9 22.6 91 1.1 E 2 4 1 2 1009.2 - 0.2
24/03:30am 24.3 29.4 22.7 91 1.1 CALM 0 0 0 0 1009.3 - 0.2
24/03:00am 24.6 29.8 22.9 90 1.1 CALM 0 0 0 0 1009.4 1009.3 0.2
24/02:30am 24.4 29.5 22.7 90 1.1 CALM 0 0 0 0 1009.6 - 0.2
24/02:00am 24.6 29.5 23.0 91 1.1 N 2 4 1 2 1009.6 - 0.2
24/01:30am 24.8 29.3 23.0 90 1.2 ENE 4 6 2 3 1009.6 - 0.2
24/01:00am 25.1 30.5 23.2 89 1.3 CALM 0 4 0 2 1010.1 - 0.2
24/12:30am 25.0 30.4 23.2 90 1.2 CALM 0 0 0 0 1010.2 - 0.2
24/12:00am 24.6 28.9 22.7 89 1.3 NE 4 6 2 3 1010.5 1010.4 0.2
 
Date/Time
EST
Temp
°C
App
Temp
°C
Dew
Point
°C
Rel
Hum
%
Delta-T
°C
Wind Press
QNH
hPa
Press
MSL
hPa
Rain since
9am
mm
Dir  Spd
km/h
Gust
km/h
Spd
kts
Gust
kts
23/11:30pm 24.4 28.5 22.2 87 1.5 N 4 7 2 4 1010.6 - 0.2
23/11:00pm 24.7 27.1 20.9 79 2.5 ENE 9 15 5 8 1010.4 - 0.2
23/10:38pm 24.8 28.2 22.7 88 1.4 E 9 20 5 11 1010.6 - 0.2
23/10:30pm 25.0 28.7 23.3 90 1.2 ENE 9 19 5 10 1010.6 - 0.2
23/10:15pm 25.4 28.9 23.5 89 1.3 ENE 11 19 6 10 1010.6 - 0.2
23/10:00pm 26.7 31.8 23.3 81 2.3 SSE 2 6 1 3 1010.4 - 0.2
23/09:30pm 27.3 31.7 22.8 76 3.1 W 4 6 2 3 1010.2 - 0.2
23/09:00pm 27.5 32.3 22.9 76 3.1 SW 2 7 1 4 1009.9 1009.8 0.2
23/08:30pm 27.6 31.8 23.1 76 3.1 WNW 6 11 3 6 1009.4 - 0.2
23/08:00pm 27.5 31.4 22.9 76 3.1 SW 7 15 4 8 1008.9 - 0.2
23/07:30pm 27.6 31.0 22.7 74 3.3 W 9 19 5 10 1008.2 - 0.2
23/07:00pm 27.7 30.6 22.5 73 3.5 W 11 19 6 10 1007.7 - 0.2
23/06:30pm 28.1 31.1 21.9 69 4.2 W 9 17 5 9 1007.4 - 0.2
23/06:00pm 28.6 30.5 22.0 67 4.5 W 15 22 8 12 1006.9 1006.8 0.2
23/05:30pm 29.1 30.9 22.6 68 4.4 W 17 24 9 13 1006.7 - 0.2
23/05:00pm 29.7 32.0 22.8 66 4.7 W 15 26 8 14 1006.5 - 0.2
23/04:30pm 29.8 31.2 22.6 65 4.9 W 19 30 10 16 1006.4 - 0.2
23/04:00pm 30.7 32.5 23.5 65 5.0 W 20 35 11 19 1006.4 - 0.2
23/03:30pm 31.2 32.2 22.9 61 5.7 W 22 32 12 17 1006.6 - 0.2
23/03:00pm 34.5 36.3 19.6 41 9.9 E 9 17 5 9 1006.8 1006.7 0.2
23/02:30pm 33.8 35.7 18.6 40 9.9 ESE 6 17 3 9 1007.2 - 0.2
23/02:00pm 33.4 34.7 19.3 43 9.3 E 11 20 6 11 1007.7 - 0.2
23/01:30pm 33.4 35.7 19.5 44 9.2 NNE 6 13 3 7 1008.2 - 0.2
23/01:00pm 33.0 35.0 20.0 46 8.6 ENE 9 19 5 10 1008.9 - 0.2
23/12:30pm 33.1 35.0 20.6 47 8.4 E 11 24 6 13 1009.5 - 0.2
23/12:00pm 31.6 33.9 20.6 52 7.3 SE 9 19 5 10 1010.0 1009.9 0.2
23/11:30am 31.3 33.4 20.2 51 7.4 SSE 9 19 5 10 1010.6 - 0.2
23/11:00am 30.8 32.8 20.7 55 6.7 ESE 11 17 6 9 1011.2 - 0.2
23/10:30am 30.0 32.6 21.2 59 5.9 E 9 22 5 12 1011.7 - 0.2
23/10:00am 29.0 31.6 21.2 62 5.2 ESE 9 15 5 8 1011.8 - 0.0
23/09:30am 28.1 30.5 21.5 67 4.4 E 11 19 6 10 1012.1 - 0.0
23/09:00am 27.2 29.8 21.9 73 3.6 ESE 11 19 6 10 1012.4 1012.3 1.6
23/08:30am 26.5 29.8 22.5 78 2.7 ESE 9 15 5 8 1012.4 - 1.6
23/08:00am 25.5 29.4 22.9 85 1.8 SE 7 11 4 6 1012.2 - 1.6
23/07:32am 24.7 28.9 23.1 91 1.1 SE 6 9 3 5 1011.7 - 1.6
23/07:30am 24.8 29.0 23.2 91 1.1 SE 6 9 3 5 1011.7 - 1.6
23/07:00am 24.5 29.4 23.1 92 0.9 S 2 6 1 3 1011.6 - 1.6
23/06:52am 24.4 28.9 22.9 91 1.0 S 4 6 2 3 1011.5 - 1.6
23/06:30am 24.4 28.9 23.0 92 0.9 ESE 4 6 2 3 1011.3 - 1.6
23/06:26am 24.3 28.8 22.9 92 0.9 ESE 4 6 2 3 1011.2 - 1.6
23/06:12am 24.3 29.1 22.8 91 1.0 SSE 2 6 1 3 1011.0 - 1.6
23/06:00am 24.3 28.7 22.8 91 1.0 ESE 4 6 2 3 1010.9 1010.8 1.6
23/05:30am 24.3 28.7 22.8 91 1.0 E 4 6 2 3 1010.5 - 1.6
23/05:29am 24.3 28.7 22.8 91 1.0 E 4 6 2 3 1010.5 - 1.6
23/05:10am 24.3 29.1 22.8 91 1.0 S 2 6 1 3 1010.3 - 1.6
23/05:00am 24.4 29.2 22.9 91 1.0 SE 2 6 1 3 1010.2 - 1.6
23/04:30am 24.7 30.0 23.0 90 1.1 CALM 0 0 0 0 1009.8 - 1.6
23/04:00am 24.8 30.0 22.8 89 1.3 CALM 0 4 0 2 1009.6 - 1.6
23/03:30am 24.7 29.9 22.8 89 1.3 CALM 0 0 0 0 1009.7 - 1.6
23/03:00am 24.9 30.0 22.6 87 1.5 CALM 0 0 0 0 1009.9 1009.8 1.6
23/02:30am 24.7 29.9 22.8 89 1.3 CALM 0 0 0 0 1010.3 - 1.6
23/02:00am 24.7 29.3 23.2 91 1.0 ENE 4 6 2 3 1010.6 - 1.6
23/01:30am 24.8 29.4 23.2 91 1.1 ESE 4 4 2 2 1010.9 - 1.6
23/01:00am 24.6 29.8 22.9 90 1.1 CALM 0 0 0 0 1011.5 - 1.6
23/12:43am 24.7 29.2 23.0 90 1.1 S 4 6 2 3 1011.7 - 1.6
23/12:32am 24.5 28.6 22.9 91 1.1 SSE 6 7 3 4 1011.8 - 1.6
23/12:30am 24.6 28.7 23.0 91 1.1 SSE 6 7 3 4 1011.9 - 1.6
23/12:00am 24.7 29.5 22.8 89 1.3 E 2 6 1 3 1012.0 1011.9 1.6
 
Date/Time
EST
Temp
°C
App
Temp
°C
Dew
Point
°C
Rel
Hum
%
Delta-T
°C
Wind Press
QNH
hPa
Press
MSL
hPa
Rain since
9am
mm
Dir  Spd
km/h
Gust
km/h
Spd
kts
Gust
kts
22/11:31pm 24.6 29.1 22.9 90 1.1 ESE 4 7 2 4 1012.1 - 1.6
22/11:30pm 24.6 28.7 22.9 90 1.1 ESE 6 7 3 4 1012.1 - 1.6
22/11:16pm 24.5 28.5 22.8 90 1.1 SE 6 9 3 5 1012.1 - 1.6
22/11:00pm 24.3 28.5 22.5 90 1.2 E 4 7 2 4 1012.2 - 1.6
22/10:57pm 24.4 28.7 22.6 90 1.2 E 4 7 2 4 1012.2 - 1.6
22/10:46pm 24.2 28.0 22.4 90 1.2 E 6 7 3 4 1012.1 - 1.6
22/10:39pm 24.3 28.1 22.7 91 1.1 NE 7 11 4 6 1012.0 - 1.6
22/10:30pm 24.4 27.8 22.7 90 1.1 N 9 15 5 8 1011.9 - 1.6
22/10:00pm 25.0 28.9 23.6 92 1.0 ENE 9 13 5 7 1011.9 - 1.2
22/09:30pm 25.3 28.8 23.5 90 1.2 ENE 11 19 6 10 1011.5 - 0.0
22/09:00pm 26.7 29.4 22.1 76 3.1 ENE 11 19 6 10 1011.4 1011.3 0.0
22/08:30pm 28.3 31.2 20.6 63 5.1 SW 6 7 3 4 1011.0 - 0.0
22/08:00pm 28.1 31.9 21.6 68 4.4 WSW 4 7 2 4 1010.6 - 0.0
22/07:30pm 27.9 31.4 22.1 70 3.9 W 7 15 4 8 1009.9 - 0.0
22/07:00pm 28.5 31.5 21.9 67 4.4 W 9 17 5 9 1009.5 - 0.0
22/06:30pm 28.9 31.8 21.8 65 4.8 W 9 15 5 8 1008.9 - 0.0
22/06:00pm 29.6 32.1 21.0 60 5.7 W 9 17 5 9 1008.8 1008.7 0.0
22/05:30pm 30.7 32.8 21.0 56 6.5 WSW 11 20 6 11 1008.4 - 0.0
22/05:00pm 30.7 33.1 21.5 58 6.2 SW 11 20 6 11 1008.1 - 0.0
22/04:30pm 32.2 34.1 21.4 53 7.3 WSW 13 22 7 12 1007.9 - 0.0
22/04:00pm 32.2 33.5 21.7 54 7.1 W 17 28 9 15 1007.8 - 0.0
22/03:30pm 33.2 33.5 20.8 48 8.3 W 20 28 11 15 1007.8 - 0.0
22/03:00pm 34.1 35.9 19.5 42 9.7 SW 9 20 5 11 1008.0 1007.9 0.0
22/02:30pm 34.4 36.7 19.9 42 9.6 WSW 7 17 4 9 1008.3 - 0.0
22/02:00pm 33.7 35.4 19.4 43 9.4 SSW 9 20 5 11 1008.8 - 0.0

Other Formats:

Comma delimited format used in spreadsheet applications
http://www.bom.gov.au/fwo/IDQ60801/IDQ60801.94170.axf

JavaScript Object Notation format (JSON) in row-major order
http://www.bom.gov.au/fwo/IDQ60801/IDQ60801.94170.json